Latest Weather Observations for Truscott

IDW60801

Issued at 3:02 pm WST Monday 22 December 2014 (issued every 30 minutes, with the page automatically refreshed every 10 minutes)

About weather observations | Map of weather stations | Latest weather observations for WA | Other Formats
Station Details ID: 001020 Name: TRUSCOTT Lat: -14.09 Lon: 126.39 Height: 51.0 m
Data from the previous 72 hours. | See also: Recent months at Truscott
Date/Time
WST
Temp
°C
App
Temp
°C
Dew
Point
Rel
Hum
%
Delta-T
°C
Wind Press
QNH
hPa
Press
MSL
hPa
Rain
since 9 am
mm
Dir
 
Spd
km/h
Gust
km/h
Spd
kts
Gust
kts
22/03:00pm 33.3 35.6 22.7 53 7.3 N 15 15 8 8 1006.0 1005.5 0.6
22/02:30pm 33.0 35.4 23.0 55 6.9 NNW 15 15 8 8 1006.0 - 0.6
22/02:00pm 33.0 35.6 24.0 59 6.3 NNW 17 - 9 - 1006.0 - 0.6
22/01:30pm 34.0 36.0 23.0 52 7.6 NNW 17 - 9 - 1006.0 - 0.6
22/01:00pm 33.0 34.4 21.0 49 8.1 N 15 - 8 - 1006.0 - 0.6
22/12:30pm 33.0 36.0 24.0 59 6.3 NNW 15 - 8 - 1007.0 - 0.6
22/12:00pm 33.0 35.6 23.3 56 6.7 N 15 - 8 - 1007.0 1007.0 0.6
22/11:30am 33.0 36.2 25.0 63 5.7 NW 17 - 9 - 1008.0 - 0.6
22/11:00am 32.0 35.2 25.0 66 4.9 NNW 17 - 9 - 1008.0 - 0.6
22/10:30am 32.0 37.0 26.0 70 4.3 NNW 11 - 6 - 1008.0 - 0.4
22/10:00am 30.0 35.4 26.0 79 2.8 NNE 9 - 5 - 1008.0 - 0.4
22/09:30am 31.0 35.0 25.0 70 4.2 N 13 - 7 - 1009.0 - 0.0
22/09:00am 33.7 38.0 23.7 56 7.0 E 7 - 4 - 1008.0 1008.3 0.0
22/08:30am 32.0 35.9 23.0 59 6.2 NE 7 - 4 - 1008.0 - 0.0
22/08:00am 32.0 37.1 25.0 66 4.9 ENE 7 - 4 - 1008.0 - 0.0
22/07:30am 31.0 36.1 25.0 70 4.2 ENE 7 - 4 - 1008.0 - 0.0
22/07:00am 30.0 34.7 25.0 74 3.5 E 9 - 5 - 1008.0 - 0.0
22/06:30am 29.0 34.1 25.0 79 2.8 ESE 7 7 4 4 1008.0 - 0.0
22/06:00am 27.8 32.6 24.4 82 2.4 ESE 7 7 4 4 1007.0 1007.2 0.0
22/05:30am 27.0 31.7 24.0 83 2.1 ESE 6 - 3 - 1007.0 - 0.0
22/05:00am 27.0 32.8 24.0 83 2.1 CALM 0 - 0 - 1006.0 - 0.0
22/04:30am 27.0 32.8 24.0 83 2.1 CALM 0 - 0 - 1006.0 - 0.0
22/04:00am 27.0 32.7 25.0 89 1.4 SSE 4 - 2 - 1006.0 - 0.0
22/03:30am 27.0 32.7 25.0 89 1.4 ESE 4 - 2 - 1006.0 - 0.0
22/03:00am 27.4 32.8 25.4 89 1.4 ESE 7 - 4 - 1006.0 1005.8 0.0
22/02:30am 27.0 33.1 25.0 89 1.4 ENE 2 - 1 - 1006.0 - 0.0
22/02:00am 28.0 34.5 25.0 84 2.1 CALM 0 - 0 - 1006.0 - 0.0
22/01:30am 27.0 33.5 25.0 89 1.4 CALM 0 - 0 - 1006.0 - 0.0
22/01:00am 28.0 35.1 26.0 89 1.4 CALM 0 - 0 - 1006.0 - 0.0
22/12:30am 28.0 33.4 26.0 89 1.4 SE 9 - 5 - 1006.0 - 0.0
22/12:00am 27.7 34.2 25.1 86 1.8 CALM 0 0 0 0 1006.0 1006.2 0.0
 
Date/Time
WST
Temp
°C
App
Temp
°C
Dew
Point
Rel
Hum
%
Delta-T
°C
Wind Press
QNH
hPa
Press
MSL
hPa
Rain
since 9 am
mm
Dir
 
Spd
km/h
Gust
km/h
Spd
kts
Gust
kts
21/11:30pm 28.0 34.5 25.0 84 2.1 CALM 0 - 0 - 1007.0 - 0.0
21/11:00pm 28.0 33.7 25.0 84 2.1 NNE 4 - 2 - 1007.0 - 0.0
21/10:30pm 29.0 35.5 25.0 79 2.8 CALM 0 - 0 - 1007.0 - 0.0
21/10:00pm 29.0 34.3 25.0 79 2.8 WNW 6 - 3 - 1007.0 - 0.0
21/09:30pm 29.0 34.1 25.0 79 2.8 W 7 7 4 4 1007.0 - 0.0
21/09:00pm 29.9 35.3 25.4 77 3.2 WSW 7 - 4 - 1007.0 1006.8 0.0
21/08:30pm 30.0 35.8 26.0 79 2.8 WSW 7 - 4 - 1007.0 - 0.0
21/08:00pm 30.0 35.0 26.0 79 2.8 W 11 - 6 - 1007.0 - 0.0
21/07:30pm 30.0 34.0 25.0 74 3.5 W 13 - 7 - 1006.0 - 0.0
21/07:00pm 31.0 35.4 25.0 70 4.2 W 11 - 6 - 1006.0 - 0.0
21/06:30pm 31.0 35.0 25.0 70 4.2 WNW 13 - 7 - 1005.0 - 0.0
21/06:00pm 31.7 35.8 24.6 66 5.0 WNW 11 15 6 8 1005.0 1004.8 0.0
21/05:30pm 33.0 37.0 25.0 63 5.7 WNW 13 - 7 - 1004.0 - 0.0
21/05:00pm 33.0 37.0 25.0 63 5.7 WNW 13 - 7 - 1004.0 - 0.0
21/04:30pm 33.0 37.0 25.0 63 5.7 NW 13 - 7 - 1004.0 - 0.0
21/04:00pm 34.0 37.4 24.0 56 7.0 WNW 13 - 7 - 1004.0 - 0.0
21/03:30pm 35.0 39.0 25.0 56 7.1 WNW 13 - 7 - 1004.0 - 0.0
21/03:00pm 34.4 37.1 22.8 51 8.0 NW 13 - 7 - 1004.0 1004.2 0.0
21/02:30pm 35.0 37.6 24.0 53 7.7 W 17 - 9 - 1004.0 - 0.0
21/02:00pm 35.0 38.6 25.0 56 7.1 WNW 15 - 8 - 1005.0 - 0.0
21/01:30pm 35.0 37.6 24.0 53 7.7 W 17 - 9 - 1005.0 - 0.0
21/01:00pm 34.0 35.7 23.0 52 7.6 WNW 19 - 10 - 1005.0 - 0.0
21/12:30pm 34.0 36.6 24.0 56 7.0 WNW 17 - 9 - 1006.0 - 0.0
21/12:00pm 33.8 36.5 24.1 57 6.8 WNW 17 - 9 - 1007.0 1006.6 0.0
21/11:30am 34.0 36.6 24.0 56 7.0 W 17 - 9 - 1007.0 - 0.0
21/11:00am 34.0 36.0 23.0 52 7.6 WNW 17 - 9 - 1008.0 - 0.0
21/10:30am 34.0 37.6 25.0 59 6.4 WNW 15 - 8 - 1008.0 - 0.0
21/10:00am 33.0 37.0 25.0 63 5.7 WNW 13 - 7 - 1008.0 - 0.0
21/09:30am 33.0 37.4 25.0 63 5.7 W 11 - 6 - 1008.0 - 0.0
21/09:00am 31.5 35.5 24.4 66 5.0 W 11 - 6 - 1009.0 1008.5 0.2
21/08:30am 31.0 36.1 25.0 70 4.2 WSW 7 - 4 - 1009.0 - 0.2
21/08:00am 31.0 35.4 25.0 70 4.2 WSW 11 - 6 - 1009.0 - 0.2
21/07:30am 30.0 35.1 25.0 74 3.5 SW 7 - 4 - 1008.0 - 0.2
21/07:00am 30.0 35.1 25.0 74 3.5 W 7 - 4 - 1008.0 - 0.2
21/06:30am 29.0 35.1 25.0 79 2.8 SW 2 - 1 - 1008.0 - 0.2
21/06:00am 27.9 34.0 24.5 82 2.4 CALM 0 - 0 - 1008.0 1007.6 0.2
21/05:30am 26.0 31.8 24.0 89 1.4 CALM 0 - 0 - 1007.0 - 0.2
21/05:00am 25.0 30.8 24.0 94 0.7 CALM 0 - 0 - 1007.0 - 0.2
21/04:30am 25.0 30.8 24.0 94 0.7 CALM 0 - 0 - 1007.0 - 0.2
21/04:00am 26.0 30.5 24.0 89 1.4 SW 7 - 4 - 1007.0 - 0.2
21/03:30am 25.0 29.7 24.0 94 0.7 S 6 - 3 - 1006.0 - 0.2
21/03:00am 25.2 29.8 23.8 92 1.0 S 6 - 3 - 1006.0 1006.1 0.2
21/02:30am 25.0 30.3 23.0 89 1.4 CALM 0 - 0 - 1006.0 - 0.2
21/02:00am 25.0 30.3 23.0 89 1.4 CALM 0 - 0 - 1006.0 - 0.2
21/01:30am 25.0 30.3 23.0 89 1.4 CALM 0 - 0 - 1006.0 - 0.2
21/01:00am 26.0 31.3 23.0 83 2.0 CALM 0 - 0 - 1006.0 - 0.2
21/12:30am 27.0 30.9 23.0 79 2.7 W 7 - 4 - 1006.0 - 0.2
21/12:00am 26.5 31.4 23.0 81 2.4 ESE 2 - 1 - 1007.0 1006.9 0.2
 
Date/Time
WST
Temp
°C
App
Temp
°C
Dew
Point
Rel
Hum
%
Delta-T
°C
Wind Press
QNH
hPa
Press
MSL
hPa
Rain
since 9 am
mm
Dir
 
Spd
km/h
Gust
km/h
Spd
kts
Gust
kts
20/11:30pm 26.0 31.3 23.0 83 2.0 CALM 0 - 0 - 1007.0 - 0.2
20/11:00pm 26.0 31.3 23.0 83 2.0 CALM 0 - 0 - 1008.0 - 0.2
20/10:30pm 26.0 30.1 23.0 83 2.0 ESE 6 - 3 - 1008.0 - 0.2
20/10:00pm 26.0 30.1 23.0 83 2.0 ESE 6 - 3 - 1008.0 - 0.2
20/09:30pm 26.0 29.9 23.0 83 2.0 SE 7 - 4 - 1008.0 - 0.2
20/09:00pm 26.8 30.2 23.3 81 2.4 S 11 - 6 - 1008.0 1008.3 0.2
20/08:30pm 27.0 29.3 22.0 74 3.4 SSW 13 - 7 - 1008.0 - 0.2
20/08:00pm 27.0 29.6 22.0 74 3.4 SW 11 - 6 - 1008.0 - 0.2
20/07:30pm 27.0 30.6 23.0 79 2.7 WSW 9 - 5 - 1007.0 - 0.2
20/07:00pm 26.0 27.7 23.0 83 2.0 W 19 - 10 - 1007.0 - 0.2
20/06:30pm 27.0 28.1 22.0 74 3.4 WSW 19 - 10 - 1007.0 - 0.2
20/06:00pm 26.6 27.6 21.8 75 3.2 WSW 19 - 10 - 1007.0 1006.8 0.2
20/05:30pm 25.0 28.0 22.0 83 2.0 WSW 9 - 5 - 1007.0 - 0.2
20/05:00pm 24.0 24.6 21.0 83 2.0 SSE 19 41 10 22 1007.0 - 0.0
20/04:57pm 25.0 23.9 21.0 78 2.6 S 28 46 15 25 1007.0 - 0.0
20/04:30pm 29.0 29.9 22.0 66 4.7 S 20 - 11 - 1007.0 - 0.0
20/04:00pm 31.0 34.2 23.0 62 5.5 N 11 - 6 - 1005.0 - 0.0
20/03:30pm 31.0 34.0 24.0 66 4.9 N 15 - 8 - 1005.0 - 0.0
20/03:00pm 30.8 33.0 23.2 64 5.2 N 17 - 9 - 1006.0 1005.4 0.0
20/02:30pm 31.0 33.4 23.0 62 5.5 N 15 - 8 - 1006.0 - 0.0
20/02:00pm 31.0 33.6 24.0 66 4.9 N 17 - 9 - 1006.0 - 0.0
20/01:30pm 32.0 34.6 24.0 62 5.6 N 17 - 9 - 1006.0 - 0.0
20/01:00pm 31.0 33.2 24.0 66 4.9 N 19 - 10 - 1007.0 - 0.0
20/12:30pm 33.0 36.2 23.0 55 6.9 N 11 - 6 - 1007.0 - 0.0
20/12:00pm 33.2 36.2 22.6 53 7.3 WNW 11 - 6 - 1007.0 1006.9 0.0
20/11:30am 33.0 37.1 23.0 55 6.9 NNE 6 - 3 - 1007.0 - 0.0
20/11:00am 32.0 35.6 23.0 59 6.2 NNE 9 - 5 - 1008.0 - 0.0
20/10:30am 31.0 34.4 24.0 66 4.9 N 13 - 7 - 1009.0 - 0.0
20/10:00am 32.0 34.4 23.0 59 6.2 N 15 - 8 - 1009.0 - 0.0
20/09:30am 32.0 33.7 23.0 59 6.2 N 19 - 10 - 1009.0 - 0.0
20/09:00am 32.8 36.5 22.6 55 7.0 ENE 7 - 4 - 1010.0 1009.5 0.0
20/08:30am 31.0 34.0 22.0 58 6.1 ENE 9 - 5 - 1010.0 - 0.0
20/08:00am 30.0 33.0 22.0 62 5.4 E 9 - 5 - 1010.0 - 0.0
20/07:30am 29.0 32.0 22.0 66 4.7 E 9 - 5 - 1010.0 - 0.0
20/07:00am 28.0 31.0 22.0 70 4.0 SE 9 - 5 - 1010.0 - 0.0
20/06:30am 28.0 31.4 22.0 70 4.0 SE 7 - 4 - 1010.0 - 0.0
20/06:00am 27.4 30.6 21.7 71 3.8 SE 7 - 4 - 1010.0 1009.5 0.0
20/05:30am 27.0 30.4 22.0 74 3.4 SE 7 - 4 - 1009.0 - 0.0
20/05:00am 27.0 30.4 22.0 74 3.4 SE 7 - 4 - 1009.0 - 0.0
20/04:30am 27.0 30.6 22.0 74 3.4 E 6 - 3 - 1009.0 - 0.0
20/04:00am 27.0 30.9 23.0 79 2.7 ESE 7 - 4 - 1008.0 - 0.0
20/03:30am 27.0 30.6 23.0 79 2.7 SE 9 - 5 - 1008.0 - 0.0
20/03:00am 27.2 31.3 23.2 79 2.7 ESE 7 - 4 - 1008.0 1007.8 0.0
20/02:30am 27.0 32.3 23.0 79 2.7 CALM 0 - 0 - 1008.0 - 0.0
20/02:00am 27.0 31.7 24.0 83 2.1 E 6 - 3 - 1008.0 - 0.0
20/01:30am 27.0 32.1 24.0 83 2.1 ESE 4 - 2 - 1008.0 - 0.0
20/01:00am 28.0 32.5 24.0 79 2.8 E 7 - 4 - 1009.0 - 0.0
20/12:30am 28.0 32.1 24.0 79 2.8 SE 9 - 5 - 1009.0 - 0.0
20/12:00am 27.5 31.6 24.5 84 2.1 SE 11 - 6 - 1009.0 1009.2 0.0
 
Date/Time
WST
Temp
°C
App
Temp
°C
Dew
Point
Rel
Hum
%
Delta-T
°C
Wind Press
QNH
hPa
Press
MSL
hPa
Rain
since 9 am
mm
Dir
 
Spd
km/h
Gust
km/h
Spd
kts
Gust
kts
19/11:30pm 28.0 32.7 25.0 84 2.1 S 9 - 5 - 1009.0 - 0.0
19/11:00pm 29.0 34.8 24.0 74 3.5 CALM 0 - 0 - 1010.0 - 0.0
19/10:30pm 29.0 34.3 25.0 79 2.8 WNW 6 - 3 - 1010.0 - 0.0
19/10:00pm 29.0 34.7 25.0 79 2.8 W 4 - 2 - 1010.0 - 0.0
19/09:30pm 29.0 34.1 25.0 79 2.8 NW 7 - 4 - 1010.0 - 0.0
19/09:00pm 28.9 34.0 24.9 79 2.8 NNW 7 - 4 - 1009.0 1009.3 0.0
19/08:30pm 29.0 34.3 25.0 79 2.8 NNW 6 - 3 - 1009.0 - 0.0
19/08:00pm 29.0 34.3 25.0 79 2.8 WNW 6 - 3 - 1009.0 - 0.0
19/07:30pm 30.0 35.1 25.0 74 3.5 W 7 - 4 - 1009.0 - 0.0
19/07:00pm 30.0 35.1 25.0 74 3.5 WNW 7 - 4 - 1008.0 - 0.0
19/06:30pm 30.0 34.4 25.0 74 3.5 W 11 - 6 - 1008.0 - 0.0
19/06:00pm 29.9 35.4 25.6 78 3.1 W 7 - 4 - 1008.0 1008.0 0.0
19/05:30pm 30.0 35.1 25.0 74 3.5 WNW 7 - 4 - 1008.0 - 0.0
19/05:00pm 30.0 35.1 25.0 74 3.5 NW 7 - 4 - 1007.0 - 0.0
19/04:30pm 30.0 34.7 25.0 74 3.5 WNW 9 - 5 - 1007.0 - 0.0
19/04:00pm 30.0 34.7 25.0 74 3.5 N 9 - 5 - 1006.0 - 0.0
19/03:30pm 30.0 34.4 25.0 74 3.5 N 11 - 6 - 1006.0 - 0.0

Other Formats:

Comma delimited format used in spreadsheet applications
http://www.bom.gov.au/fwo/IDW60801/IDW60801.95101.axf

JavaScript Object Notation format (JSON) in row-major order
http://www.bom.gov.au/fwo/IDW60801/IDW60801.95101.json